createdAt,value
2017-09-15T00:01:29.859Z,12.40
2017-09-15T00:03:57.326Z,12.40
2017-09-15T00:06:26.042Z,12.40
2017-09-15T00:08:53.988Z,12.40
2017-09-15T00:11:21.499Z,12.40
2017-09-15T00:13:48.954Z,12.40
2017-09-15T00:16:16.429Z,12.30
2017-09-15T00:18:43.877Z,12.30
2017-09-15T00:21:11.351Z,12.40
2017-09-15T00:23:38.837Z,12.40
2017-09-15T00:26:06.293Z,12.40
2017-09-15T00:28:33.985Z,12.40
2017-09-15T00:31:01.570Z,12.30
2017-09-15T00:33:29.398Z,12.30
2017-09-15T00:35:56.943Z,12.30
2017-09-15T00:38:24.411Z,12.30
2017-09-15T00:40:51.901Z,12.30
2017-09-15T00:43:19.403Z,12.30
2017-09-15T00:45:46.850Z,12.30
2017-09-15T00:48:14.662Z,12.20
2017-09-15T00:50:42.313Z,12.20
2017-09-15T00:53:09.754Z,12.20
2017-09-15T00:55:37.610Z,12.20
2017-09-15T00:58:05.354Z,12.20
2017-09-15T01:00:32.852Z,12.20
2017-09-15T01:03:00.694Z,12.30
2017-09-15T01:05:28.365Z,12.30
2017-09-15T01:07:55.919Z,12.30
2017-09-15T01:10:23.475Z,12.30
2017-09-15T01:12:51.111Z,12.30
2017-09-15T01:15:18.583Z,12.30
2017-09-15T01:17:46.023Z,12.30
2017-09-15T01:20:14.001Z,12.30
2017-09-15T01:22:41.471Z,12.30
2017-09-15T01:25:08.975Z,12.30
2017-09-15T01:27:36.525Z,12.40
2017-09-15T01:30:04.006Z,12.40
2017-09-15T01:32:31.476Z,12.40
2017-09-15T01:34:58.921Z,12.40
2017-09-15T01:37:26.346Z,12.40
2017-09-15T01:39:53.794Z,12.40
2017-09-15T01:42:21.500Z,12.50
2017-09-15T01:44:48.969Z,12.50
2017-09-15T01:47:16.524Z,12.50
2017-09-15T01:49:44.072Z,12.50
2017-09-15T01:52:11.575Z,12.50
2017-09-15T01:54:39.804Z,12.50
2017-09-15T01:57:07.300Z,12.50
2017-09-15T01:59:34.760Z,12.50
2017-09-15T02:02:02.225Z,12.50
2017-09-15T02:04:29.725Z,12.50
2017-09-15T02:06:57.571Z,12.50
2017-09-15T02:09:25.109Z,12.50
2017-09-15T02:11:52.922Z,12.50
2017-09-15T02:14:21.246Z,12.50
2017-09-15T02:16:48.726Z,12.50
2017-09-15T02:19:16.204Z,12.50
2017-09-15T02:21:43.635Z,12.50
2017-09-15T02:24:11.090Z,12.60
2017-09-15T02:26:38.560Z,12.60
2017-09-15T02:29:06.052Z,12.60
2017-09-15T02:31:33.528Z,12.60
2017-09-15T02:34:01.140Z,12.60
2017-09-15T02:36:28.625Z,12.60
2017-09-15T02:38:56.118Z,12.60
2017-09-15T02:41:23.788Z,12.60
2017-09-15T02:43:51.240Z,12.50
2017-09-15T02:46:18.805Z,12.50
2017-09-15T02:48:46.290Z,12.50
2017-09-15T02:51:14.257Z,12.40
2017-09-15T02:53:42.715Z,12.40
2017-09-15T02:56:10.247Z,12.40
2017-09-15T02:58:37.697Z,12.30
2017-09-15T03:01:05.210Z,12.30
2017-09-15T03:03:32.664Z,12.30
2017-09-15T03:06:00.104Z,12.30
2017-09-15T03:08:27.565Z,12.30
2017-09-15T03:10:55.047Z,12.30
2017-09-15T03:13:22.524Z,12.30
2017-09-15T03:15:49.949Z,12.30
2017-09-15T03:18:17.420Z,12.20
2017-09-15T03:20:45.017Z,12.20
2017-09-15T03:23:12.441Z,12.20
2017-09-15T03:25:39.905Z,12.30
2017-09-15T03:28:07.423Z,12.20
2017-09-15T03:30:35.281Z,12.30
2017-09-15T03:33:02.811Z,12.30
2017-09-15T03:35:30.301Z,12.20
2017-09-15T03:37:57.771Z,12.20
2017-09-15T03:40:25.231Z,12.30
2017-09-15T03:42:52.838Z,12.30
2017-09-15T03:45:20.328Z,12.30
2017-09-15T03:47:48.652Z,12.30
2017-09-15T03:50:16.499Z,12.30
2017-09-15T03:52:44.058Z,12.30
2017-09-15T03:55:13.258Z,12.30
2017-09-15T03:57:40.719Z,12.30
2017-09-15T04:00:08.270Z,12.30
2017-09-15T04:02:36.860Z,12.40
2017-09-15T04:05:04.372Z,12.40
2017-09-15T04:07:32.269Z,12.50
2017-09-15T04:09:59.867Z,12.50
2017-09-15T04:12:27.310Z,12.50
2017-09-15T04:14:54.791Z,12.50
2017-09-15T04:17:22.506Z,12.50
2017-09-15T04:19:50.332Z,12.50
2017-09-15T04:22:17.775Z,12.50
2017-09-15T04:24:45.241Z,12.50
2017-09-15T04:27:12.819Z,12.50
2017-09-15T04:29:40.384Z,12.50
2017-09-15T04:32:08.055Z,12.50
2017-09-15T04:34:35.611Z,12.50
2017-09-15T04:37:03.056Z,12.50
2017-09-15T04:39:30.739Z,12.50
2017-09-15T04:41:58.341Z,12.50
2017-09-15T04:44:26.203Z,12.50
2017-09-15T04:46:54.835Z,12.50
2017-09-15T04:49:22.320Z,12.50
2017-09-15T04:51:49.765Z,12.50
2017-09-15T04:54:17.360Z,12.60
2017-09-15T04:56:44.896Z,12.60
2017-09-15T04:59:12.357Z,12.60
2017-09-15T05:01:40.232Z,12.60
2017-09-15T05:04:07.684Z,12.60
2017-09-15T05:06:35.163Z,12.60
2017-09-15T05:09:03.937Z,12.50
2017-09-15T05:11:31.402Z,12.50
2017-09-15T05:13:58.885Z,12.50
2017-09-15T05:16:26.356Z,12.50
2017-09-15T05:18:53.777Z,12.50
2017-09-15T05:21:21.253Z,12.60
2017-09-15T05:23:48.698Z,12.60
2017-09-15T05:26:16.152Z,12.60
2017-09-15T05:28:43.586Z,12.60
2017-09-15T05:31:11.021Z,12.60
2017-09-15T05:33:38.564Z,12.50
2017-09-15T05:36:06.380Z,12.50
2017-09-15T05:38:33.839Z,12.50
2017-09-15T05:41:01.275Z,12.50
2017-09-15T05:43:28.704Z,12.50
2017-09-15T05:45:56.195Z,12.50
2017-09-15T05:48:23.650Z,12.50
2017-09-15T05:50:51.969Z,12.50
2017-09-15T05:53:19.450Z,12.50
2017-09-15T05:55:46.966Z,12.50
2017-09-15T05:58:14.416Z,12.50
2017-09-15T06:00:41.874Z,12.50
2017-09-15T06:03:09.307Z,12.50
2017-09-15T06:05:36.752Z,12.50
2017-09-15T06:08:04.616Z,12.50
2017-09-15T06:10:32.462Z,12.50
2017-09-15T06:12:59.915Z,12.50
2017-09-15T06:15:27.496Z,12.40
2017-09-15T06:17:55.024Z,12.40
2017-09-15T06:20:22.829Z,12.40
2017-09-15T06:22:50.311Z,12.40
2017-09-15T06:25:17.769Z,12.40
2017-09-15T06:27:45.212Z,12.40
2017-09-15T06:30:12.655Z,12.40
2017-09-15T06:32:41.359Z,12.40
2017-09-15T06:35:08.931Z,12.50
2017-09-15T06:37:36.383Z,12.50
2017-09-15T06:40:03.818Z,12.50
2017-09-15T06:42:31.258Z,12.50
2017-09-15T06:44:59.839Z,12.60
2017-09-15T06:47:27.287Z,12.60
2017-09-15T06:49:54.918Z,12.60
2017-09-15T06:52:22.347Z,12.60
2017-09-15T06:54:49.770Z,12.60
2017-09-15T06:57:17.804Z,12.70
2017-09-15T06:59:45.556Z,12.70
2017-09-15T07:02:13.018Z,12.70
2017-09-15T07:04:40.734Z,12.70
2017-09-15T07:07:08.174Z,12.80
2017-09-15T07:09:35.604Z,12.80
2017-09-15T07:12:03.116Z,12.80
2017-09-15T07:14:30.708Z,12.90
2017-09-15T07:16:58.533Z,12.90
2017-09-15T07:19:26.098Z,13.00
2017-09-15T07:21:53.834Z,12.90
2017-09-15T07:24:21.275Z,13.00
2017-09-15T07:26:49.002Z,13.00
2017-09-15T07:29:16.453Z,13.00
2017-09-15T07:31:43.929Z,13.10
2017-09-15T07:34:12.546Z,13.10
2017-09-15T07:36:40.387Z,13.10
2017-09-15T07:39:07.825Z,13.10
2017-09-15T07:41:35.298Z,13.20
2017-09-15T07:44:03.267Z,13.20
2017-09-15T07:46:30.711Z,13.30
2017-09-15T07:48:58.130Z,13.30
2017-09-15T07:51:26.007Z,13.30
2017-09-15T07:53:53.837Z,13.30
2017-09-15T07:56:21.462Z,13.30
2017-09-15T07:58:48.920Z,13.40
2017-09-15T08:01:16.350Z,13.40
2017-09-15T08:03:43.791Z,13.40
2017-09-15T08:06:11.530Z,13.50
2017-09-15T08:08:38.987Z,13.50
2017-09-15T08:11:06.462Z,13.50
2017-09-15T08:13:33.895Z,13.50
2017-09-15T08:16:01.368Z,13.50
2017-09-15T08:18:28.919Z,13.50
2017-09-15T08:20:56.438Z,13.50
2017-09-15T08:23:24.014Z,13.60
2017-09-15T08:25:51.681Z,13.60
2017-09-15T08:28:19.218Z,13.60
2017-09-15T08:30:46.654Z,13.60
2017-09-15T08:33:14.172Z,13.60
2017-09-15T08:35:41.657Z,13.70
2017-09-15T08:38:09.093Z,13.70
2017-09-15T08:40:36.716Z,13.70
2017-09-15T08:43:05.513Z,13.80
2017-09-15T08:45:33.313Z,13.80
2017-09-15T08:48:00.832Z,13.80
2017-09-15T08:50:28.285Z,13.80
2017-09-15T08:52:56.709Z,14.00
2017-09-15T08:55:24.139Z,14.00
2017-09-15T08:57:51.604Z,14.00
2017-09-15T09:00:19.204Z,14.10
2017-09-15T09:02:46.719Z,14.20
2017-09-15T09:05:14.353Z,14.20
2017-09-15T09:07:42.077Z,14.30
2017-09-15T09:10:09.508Z,14.30
2017-09-15T09:12:36.961Z,14.30
2017-09-15T09:15:04.819Z,14.50
2017-09-15T09:17:32.844Z,14.50
2017-09-15T09:20:00.306Z,14.50
2017-09-15T09:22:27.787Z,14.60
2017-09-15T09:24:55.231Z,14.70
2017-09-15T09:27:22.675Z,14.80
2017-09-15T09:29:50.288Z,14.90
2017-09-15T09:32:17.719Z,14.90
2017-09-15T09:34:45.182Z,15.00
2017-09-15T09:37:12.623Z,15.00
2017-09-15T09:39:40.052Z,15.10
2017-09-15T09:42:07.908Z,15.10
2017-09-15T09:44:35.350Z,15.10
2017-09-15T09:47:02.786Z,15.10
2017-09-15T09:49:30.266Z,15.20
2017-09-15T09:51:57.693Z,15.20
2017-09-15T09:54:25.118Z,15.20
2017-09-15T09:56:52.727Z,15.30
2017-09-15T09:59:20.415Z,15.20
2017-09-15T10:01:47.868Z,15.20
2017-09-15T10:04:15.493Z,15.20
2017-09-15T10:06:42.917Z,15.30
2017-09-15T10:09:10.368Z,15.30
2017-09-15T10:11:37.799Z,15.40
2017-09-15T10:14:05.240Z,15.50
2017-09-15T10:16:33.111Z,15.70
2017-09-15T10:19:01.128Z,15.90
2017-09-15T10:21:29.173Z,15.90
2017-09-15T10:23:57.013Z,16.00
2017-09-15T10:26:24.442Z,16.00
2017-09-15T10:28:51.887Z,16.00
2017-09-15T10:31:19.352Z,16.00
2017-09-15T10:33:46.812Z,16.00
2017-09-15T10:36:14.244Z,16.00
2017-09-15T10:38:42.116Z,16.20
2017-09-15T10:41:09.959Z,16.20
2017-09-15T10:43:37.401Z,16.30
2017-09-15T10:46:04.835Z,16.40
2017-09-15T10:48:32.319Z,16.50
2017-09-15T10:50:59.745Z,16.40
2017-09-15T10:53:27.176Z,16.50
2017-09-15T10:55:54.635Z,16.50
2017-09-15T10:58:27.976Z,16.60
2017-09-15T11:00:55.412Z,16.60
2017-09-15T11:03:23.534Z,16.60
2017-09-15T11:05:50.974Z,16.60
2017-09-15T11:08:18.429Z,16.60
2017-09-15T11:10:45.890Z,16.60
2017-09-15T11:13:13.595Z,16.50
2017-09-15T11:15:41.036Z,16.50
2017-09-15T11:18:08.504Z,16.50
2017-09-15T11:20:35.925Z,16.50
2017-09-15T11:23:03.834Z,16.40
2017-09-15T11:25:31.297Z,16.40
2017-09-15T11:27:58.968Z,16.40
2017-09-15T11:30:26.970Z,16.40
2017-09-15T11:32:54.425Z,16.40
2017-09-15T11:35:22.466Z,16.40
2017-09-15T11:37:49.942Z,16.40
2017-09-15T11:40:17.404Z,16.40
2017-09-15T11:42:44.978Z,16.40
2017-09-15T11:45:13.591Z,16.40
2017-09-15T11:47:41.069Z,16.20
2017-09-15T11:50:08.572Z,16.00
2017-09-15T11:52:36.034Z,15.90
2017-09-15T11:55:03.475Z,15.70
2017-09-15T11:57:31.388Z,15.50
2017-09-15T11:59:58.996Z,15.50
2017-09-15T12:02:26.892Z,15.40
2017-09-15T12:04:54.318Z,15.40
2017-09-15T12:07:22.070Z,15.30
2017-09-15T12:09:49.481Z,15.30
2017-09-15T12:12:16.924Z,15.30
2017-09-15T12:15:03.450Z,15.20
2017-09-15T12:17:30.928Z,15.30
2017-09-15T12:19:58.430Z,15.30
2017-09-15T12:22:26.174Z,15.30
2017-09-15T12:24:53.585Z,15.40
2017-09-15T12:27:21.095Z,15.40
2017-09-15T12:29:48.682Z,15.30
2017-09-15T12:32:16.132Z,15.40
2017-09-15T12:34:43.609Z,15.40
2017-09-15T12:37:11.219Z,15.40
2017-09-15T12:39:38.674Z,15.40
2017-09-15T12:42:06.225Z,15.50
2017-09-15T12:44:34.216Z,15.50
2017-09-15T12:47:01.663Z,15.50
2017-09-15T12:49:29.559Z,15.70
2017-09-15T12:51:57.006Z,15.70
2017-09-15T12:54:24.461Z,15.80
2017-09-15T12:56:51.930Z,15.80
2017-09-15T12:59:19.353Z,15.90
2017-09-15T13:01:46.856Z,16.00
2017-09-15T13:04:14.526Z,16.00
2017-09-15T13:06:42.036Z,16.10
2017-09-15T13:09:09.514Z,16.20
2017-09-15T13:11:36.947Z,16.30
2017-09-15T13:14:04.484Z,16.20
2017-09-15T13:16:32.464Z,16.30
2017-09-15T13:19:00.166Z,16.30
2017-09-15T13:21:28.168Z,16.30
2017-09-15T13:23:56.067Z,16.30
2017-09-15T13:26:23.676Z,16.30
2017-09-15T13:28:51.131Z,16.30
2017-09-15T13:31:18.570Z,16.30
2017-09-15T13:33:46.053Z,16.40
2017-09-15T13:36:13.511Z,16.30
2017-09-15T13:38:40.959Z,16.30
2017-09-15T13:41:08.823Z,16.30
2017-09-15T13:43:36.271Z,16.30
2017-09-15T13:46:03.678Z,16.40
2017-09-15T13:48:31.147Z,16.50
2017-09-15T13:50:58.593Z,16.70
2017-09-15T13:53:26.122Z,16.80
2017-09-15T13:55:53.791Z,16.90
2017-09-15T13:58:21.236Z,16.90
2017-09-15T14:00:48.680Z,16.90
2017-09-15T14:03:16.591Z,16.80
2017-09-15T14:05:44.034Z,16.80
2017-09-15T14:08:11.972Z,16.80
2017-09-15T14:10:39.562Z,16.80
2017-09-15T14:13:07.011Z,16.80
2017-09-15T14:15:34.842Z,16.70
2017-09-15T14:18:02.326Z,16.70
2017-09-15T14:20:29.745Z,16.70
2017-09-15T14:22:57.247Z,16.70
2017-09-15T14:25:24.680Z,16.80
2017-09-15T14:27:52.268Z,16.90
2017-09-15T14:30:19.726Z,16.90
2017-09-15T14:32:47.161Z,17.00
2017-09-15T14:35:14.635Z,17.10
2017-09-15T14:37:42.071Z,17.20
2017-09-15T14:40:09.496Z,17.20
2017-09-15T14:42:37.377Z,17.20
2017-09-15T14:45:05.211Z,17.20
2017-09-15T14:47:32.652Z,17.20
2017-09-15T14:50:00.095Z,17.30
2017-09-15T14:52:27.525Z,17.40
2017-09-15T14:54:55.459Z,17.50
2017-09-15T14:57:22.916Z,17.50
2017-09-15T14:59:50.566Z,17.60
2017-09-15T15:02:18.031Z,17.60
2017-09-15T15:04:45.470Z,17.70
2017-09-15T15:07:13.156Z,17.70
2017-09-15T15:09:40.842Z,17.70
2017-09-15T15:12:08.314Z,17.70
2017-09-15T15:14:35.784Z,17.70
2017-09-15T15:17:03.241Z,17.60
2017-09-15T15:19:30.775Z,17.60
2017-09-15T15:21:58.476Z,17.60
2017-09-15T15:24:26.370Z,17.40
2017-09-15T15:26:53.826Z,17.30
2017-09-15T15:29:21.556Z,17.20
2017-09-15T15:31:48.984Z,17.20
2017-09-15T15:34:16.450Z,17.30
2017-09-15T15:36:44.277Z,17.40
2017-09-15T15:39:11.730Z,17.40
2017-09-15T15:41:39.220Z,17.40
2017-09-15T15:44:07.063Z,17.40
2017-09-15T15:46:34.587Z,17.40
2017-09-15T15:49:02.323Z,17.40
2017-09-15T15:51:30.163Z,17.40
2017-09-15T15:53:57.599Z,17.40
2017-09-15T15:56:25.094Z,17.40
2017-09-15T15:58:52.579Z,17.50
2017-09-15T16:01:20.016Z,17.40
2017-09-15T16:03:47.520Z,17.30
2017-09-15T16:06:15.015Z,17.20
2017-09-15T16:08:42.470Z,17.20
2017-09-15T16:11:11.041Z,17.20
2017-09-15T16:13:38.539Z,17.20
2017-09-15T16:16:06.007Z,17.30
2017-09-15T16:18:33.495Z,17.20
2017-09-15T16:21:01.064Z,17.20
2017-09-15T16:23:28.584Z,17.20
2017-09-15T16:25:56.019Z,17.20
2017-09-15T16:28:23.505Z,17.20
2017-09-15T16:30:51.012Z,17.20
2017-09-15T16:33:18.456Z,17.10
2017-09-15T16:35:45.944Z,17.10
2017-09-15T16:38:19.582Z,17.00
2017-09-15T16:40:52.710Z,17.00
2017-09-15T16:43:25.996Z,16.90
2017-09-15T16:45:59.471Z,16.90
2017-09-15T16:48:32.619Z,16.80
2017-09-15T16:51:00.452Z,16.70
2017-09-15T16:53:28.719Z,16.70
2017-09-15T16:55:56.124Z,16.60
2017-09-15T16:58:23.555Z,16.60
2017-09-15T17:00:51.397Z,16.50
2017-09-15T17:03:18.810Z,16.50
2017-09-15T17:05:46.239Z,16.50
2017-09-15T17:08:13.672Z,16.40
2017-09-15T17:10:41.090Z,16.40
2017-09-15T17:13:08.611Z,16.40
2017-09-15T17:15:36.044Z,16.30
2017-09-15T17:18:03.467Z,16.30
2017-09-15T17:20:30.916Z,16.20
2017-09-15T17:22:58.335Z,16.20
2017-09-15T17:25:25.762Z,16.10
2017-09-15T17:27:53.375Z,16.10
2017-09-15T17:30:20.799Z,16.00
2017-09-15T17:32:48.637Z,15.90
2017-09-15T17:35:16.111Z,15.90
2017-09-15T17:37:43.541Z,15.90
2017-09-15T17:40:10.980Z,15.80
2017-09-15T17:42:38.684Z,15.80
2017-09-15T17:45:06.102Z,15.70
2017-09-15T17:47:33.908Z,15.50
2017-09-15T17:50:01.457Z,15.50
2017-09-15T17:52:28.880Z,15.50
2017-09-15T17:54:56.691Z,15.40
2017-09-15T17:57:24.463Z,15.40
2017-09-15T17:59:51.868Z,15.30
2017-09-15T18:02:19.299Z,15.30
2017-09-15T18:04:46.769Z,15.20
2017-09-15T18:07:14.185Z,15.10
2017-09-15T18:09:41.611Z,15.10
2017-09-15T18:12:09.039Z,15.10
2017-09-15T18:14:36.593Z,15.00
2017-09-15T18:17:04.155Z,15.00
2017-09-15T18:19:31.575Z,14.90
2017-09-15T18:21:59.420Z,14.90
2017-09-15T18:24:27.047Z,14.80
2017-09-15T18:26:54.475Z,14.80
2017-09-15T18:29:22.422Z,14.70
2017-09-15T18:31:50.304Z,14.70
2017-09-15T18:34:17.724Z,14.70
2017-09-15T18:36:45.142Z,14.60
2017-09-15T18:39:12.620Z,14.60
2017-09-15T18:41:40.039Z,14.60
2017-09-15T18:44:07.680Z,14.60
2017-09-15T18:46:35.145Z,14.50
2017-09-15T18:49:02.570Z,14.40
2017-09-15T18:51:30.378Z,14.40
2017-09-15T18:53:58.539Z,14.40
2017-09-15T18:56:25.968Z,14.40
2017-09-15T18:58:53.794Z,14.30
2017-09-15T19:01:21.263Z,14.30
2017-09-15T19:03:48.714Z,14.30
2017-09-15T19:06:16.155Z,14.30
2017-09-15T19:08:43.583Z,14.20
2017-09-15T19:11:11.424Z,14.20
2017-09-15T19:13:38.846Z,14.20
2017-09-15T19:16:06.281Z,14.20
2017-09-15T19:18:34.391Z,14.10
2017-09-15T19:21:01.813Z,14.10
2017-09-15T19:23:29.624Z,14.00
2017-09-15T19:25:57.062Z,14.00
2017-09-15T19:28:24.515Z,14.00
2017-09-15T19:30:52.006Z,13.90
2017-09-15T19:33:19.463Z,13.90
2017-09-15T19:35:47.252Z,13.90
2017-09-15T19:38:14.697Z,13.80
2017-09-15T19:40:42.144Z,13.80
2017-09-15T19:43:09.565Z,13.80
2017-09-15T19:45:37.074Z,13.70
2017-09-15T19:48:04.546Z,13.70
2017-09-15T19:50:31.976Z,13.60
2017-09-15T19:52:59.477Z,13.60
2017-09-15T19:55:26.889Z,13.50
2017-09-15T19:57:54.710Z,13.40
2017-09-15T20:00:22.157Z,13.40
2017-09-15T20:02:49.575Z,13.40
2017-09-15T20:05:17.407Z,13.30
2017-09-15T20:07:44.859Z,13.30
2017-09-15T20:10:12.292Z,13.20
2017-09-15T20:12:40.112Z,13.10
2017-09-15T20:15:07.554Z,13.10
2017-09-15T20:17:34.993Z,13.10
2017-09-15T20:20:02.408Z,13.00
2017-09-15T20:22:30.030Z,13.00
2017-09-15T20:24:57.448Z,12.90
2017-09-15T20:27:25.282Z,12.90
2017-09-15T20:29:52.824Z,12.90
2017-09-15T20:32:20.249Z,12.80
2017-09-15T20:34:48.085Z,12.70
2017-09-15T20:37:15.542Z,12.70
2017-09-15T20:39:42.987Z,12.70
2017-09-15T20:42:10.407Z,12.60
2017-09-15T20:44:38.471Z,12.50
2017-09-15T20:47:05.904Z,12.50
2017-09-15T20:49:33.317Z,12.50
2017-09-15T20:52:00.803Z,12.50
2017-09-15T20:54:28.260Z,12.40
2017-09-15T20:56:55.676Z,12.40
2017-09-15T20:59:23.128Z,12.40
2017-09-15T21:01:50.656Z,12.40
2017-09-15T21:04:18.126Z,12.40
2017-09-15T21:06:45.551Z,12.30
2017-09-15T21:09:12.982Z,12.30
2017-09-15T21:11:40.397Z,12.30
2017-09-15T21:14:07.812Z,12.20
2017-09-15T21:16:35.231Z,12.20
2017-09-15T21:19:02.649Z,12.10
2017-09-15T21:21:30.552Z,12.00
2017-09-15T21:23:57.977Z,12.00
2017-09-15T21:26:26.200Z,12.00
2017-09-15T21:28:53.619Z,12.00
2017-09-15T21:31:21.041Z,12.00
2017-09-15T21:33:48.580Z,11.90
2017-09-15T21:36:16.232Z,12.00
2017-09-15T21:38:43.658Z,11.90
2017-09-15T21:41:11.081Z,11.90
2017-09-15T21:43:38.502Z,11.80
2017-09-15T21:46:05.918Z,11.80
2017-09-15T21:48:34.368Z,11.80
2017-09-15T21:51:01.803Z,11.80
2017-09-15T21:53:29.599Z,11.80
2017-09-15T21:55:57.883Z,11.80
2017-09-15T21:58:25.312Z,11.80
2017-09-15T22:00:53.206Z,11.70
2017-09-15T22:03:20.624Z,11.70
2017-09-15T22:05:48.060Z,11.70
2017-09-15T22:08:15.595Z,11.70
2017-09-15T22:10:43.035Z,11.70
2017-09-15T22:13:10.852Z,11.70
2017-09-15T22:15:38.292Z,11.70
2017-09-15T22:18:05.720Z,11.70
2017-09-15T22:20:33.546Z,11.60
2017-09-15T22:23:00.981Z,11.60
2017-09-15T22:25:28.441Z,11.60
2017-09-15T22:27:55.908Z,11.50
2017-09-15T22:30:23.331Z,11.50
2017-09-15T22:32:51.253Z,11.50
2017-09-15T22:35:18.881Z,11.50
2017-09-15T22:37:46.324Z,11.40
2017-09-15T22:40:14.142Z,11.40
2017-09-15T22:42:41.555Z,11.40
2017-09-15T22:45:09.675Z,11.30
2017-09-15T22:47:37.093Z,11.30
2017-09-15T22:50:04.504Z,11.30
2017-09-15T22:52:31.956Z,11.20
2017-09-15T22:54:59.375Z,11.20
2017-09-15T22:57:27.191Z,11.20
2017-09-15T22:59:54.859Z,11.20
2017-09-15T23:02:22.334Z,11.20
2017-09-15T23:04:49.769Z,11.20
2017-09-15T23:07:17.932Z,11.20
2017-09-15T23:09:45.753Z,11.20
2017-09-15T23:12:13.208Z,11.20
2017-09-15T23:14:40.631Z,11.20
2017-09-15T23:17:08.063Z,11.20
2017-09-15T23:19:35.914Z,11.30
2017-09-15T23:22:03.460Z,11.30
2017-09-15T23:24:30.884Z,11.20
2017-09-15T23:26:58.331Z,11.10
2017-09-15T23:29:26.165Z,11.10
2017-09-15T23:31:53.582Z,11.10
2017-09-15T23:34:21.613Z,11.10
2017-09-15T23:36:49.032Z,11.10
2017-09-15T23:39:16.540Z,11.10
2017-09-15T23:41:43.977Z,11.10
2017-09-15T23:44:11.429Z,11.10
2017-09-15T23:46:38.852Z,11.00
2017-09-15T23:49:06.712Z,11.00
2017-09-15T23:51:34.120Z,11.00
2017-09-15T23:54:01.543Z,11.00
2017-09-15T23:56:29.671Z,10.90
2017-09-15T23:58:57.083Z,10.90
